Pagina principale
METAR-TAF:

METAR-TAF

Aeroporti :

Aeroporto di Budapest-Ferihegy

Budapest, Ungheria

latitudine: 47-26N, longitudine: 019-16E, altezza: 151 m

Osservazione

Il bollettino è stato emesso 22 minuti fa, alle 12:30 UTC
Vento 4 kt da direzioni variabili
Temperature 27°C
Umidità 37%
Pressione 1016 hPa
Visibilità 10 km o più
nessuna nube inferiore a 1500 m e nessun cumulonembo

METAR: LHBP 171230Z VRB04KT CAVOK 27/11 Q1016 NOSIG

Ora: 14:52 (12:52 UTC)

Previsione

Il bollettino è stato emesso 1 ora e 37 minuti fa, alle 11:15 UTC
Previsione valida dal 17 alle 12 UTC al 18 alle 12 UTC
Vento 3 kt da direzioni variabili
Visibilità 10 km o più
nessuna nube inferiore a 1500 m e nessun cumulonembo
Temporaneamente
dal 18 alle 07 UTC al 18 alle 10 UTC
Poco nuvoloso ad un'altezza di 4300 ft
Evoluzione graduale
dal 18 alle 08 UTC al 18 alle 11 UTC
Vento 6 kt da sud

TAF: LHBP 171115Z 1712/1812 VRB03KT CAVOK TEMPO 1807/1810 FEW043 BECMG 1808/1811 17006KT

Osservazioni e previsioni meteorologiche di più di 4000 aeroporti (messaggi METAR e TAF).

Le stazioni disponibili sono rappresentate dai dischi gialli e rossi sulla carta.

Puntare il mouse per vedere il nome della stazione.

Clicca sopra per visualizzare le osservazioni e previsioni meteorologiche.

Per cambiare la mappa : fare clic sui pulsanti verdi con una croce nera per ingrandire, il pulsante verde con un trattino per diminuire, o sulla freccia verde per le mappe adiacenti.


METAR-TAF: